Terminal Aerodrome Forecast
Issued by NWS Twin Cities, MN

Home | Current Version | Previous Version | Text Only | Print | Product List | Glossary Off
Versions: 1 2 3 4 5 6 7 8 9 10 11 12 13 14 15 16 17 18 19 20 21 22 23 24

000
FTUS43 KMPX 232338
TAFSTC
TAF
KSTC 232338Z 2400/2424 35005KT P6SM VCTS SCT025 BKN040CB
      TEMPO 2400/2401 4SM TSRA BKN025CB OVC040
     FM240200 03005KT P6SM VCSH BKN050
     FM240700 13006KT P6SM BKN100
     FM241000 16007KT P6SM SCT120
     FM241700 18012G18KT P6SM SCT050 BKN250=

USA.gov is the U.S. government's official web portal to all federal, state and local government web resources and services.